Time;durP1;ratioP1;P1;durP2;ratioP2;P2;SDS_P1;SDS_P2;PMS_P1;PMS_P2;Temp;Humidity;BMP_temperature;BMP_pressure;BME280_temperature;BME280_humidity;BME280_pressure;Samples;Min_cycle;Max_cycle;Signal;HPM_P1;HPM_P2
2022/11/27 00:01:47;;;;;;;56.90;18.47;;;;;;;;;;5073839;28;20379;-61
2022/11/27 00:04:12;;;;;;;47.87;16.53;;;;;;;;;;5074658;28;20020;-62
2022/11/27 00:06:38;;;;;;;47.10;15.70;;;;;;;;;;5067969;28;20028;-60
2022/11/27 00:09:05;;;;;;;54.43;16.70;;;;;;;;;;5071541;28;20027;-61
2022/11/27 00:11:31;;;;;;;44.60;14.63;;;;;;;;;;5074750;28;20029;-61
2022/11/27 00:13:56;;;;;;;45.13;15.53;;;;;;;;;;5078365;28;20027;-62
2022/11/27 00:16:22;;;;;;;43.23;14.17;;;;;;;;;;5072055;28;20051;-61
2022/11/27 00:18:48;;;;;;;47.93;16.37;;;;;;;;;;5071687;28;20484;-61
2022/11/27 00:21:18;;;;;;;53.70;15.30;;;;;;;;;;5073520;28;20013;-61
2022/11/27 00:23:44;;;;;;;42.40;14.87;;;;;;;;;;5074403;28;20423;-61
2022/11/27 00:26:09;;;;;;;41.67;14.70;;;;;;;;;;5073232;28;20169;-61
2022/11/27 00:28:35;;;;;;;38.70;13.90;;;;;;;;;;5072009;28;20025;-61
2022/11/27 00:31:01;;;;;;;35.57;13.87;;;;;;;;;;5065973;28;20025;-62
2022/11/27 00:33:27;;;;;;;37.73;13.73;;;;;;;;;;5068854;28;21442;-61
2022/11/27 00:35:52;;;;;;;45.23;13.67;;;;;;;;;;5070475;28;20127;-61
2022/11/27 00:38:19;;;;;;;38.73;12.13;;;;;;;;;;5072734;28;20029;-61
2022/11/27 00:40:44;;;;;;;34.77;12.77;;;;;;;;;;5074205;28;20114;-62
2022/11/27 00:43:09;;;;;;;37.90;12.17;;;;;;;;;;5074113;28;20060;-61
2022/11/27 00:45:35;;;;;;;36.63;11.00;;;;;;;;;;5078575;28;20116;-61
2022/11/27 00:48:00;;;;;;;30.27;10.83;;;;;;;;;;5076816;28;20077;-61
2022/11/27 00:50:26;;;;;;;32.63;11.17;;;;;;;;;;5076384;28;20029;-61
2022/11/27 00:52:51;;;;;;;28.93;10.83;;;;;;;;;;5077162;28;20481;-61
2022/11/27 00:55:16;;;;;;;30.70;10.43;;;;;;;;;;5067811;28;20127;-61
2022/11/27 00:57:42;;;;;;;29.67;10.57;;;;;;;;;;5073792;28;20036;-61
2022/11/27 01:00:07;;;;;;;26.90;10.33;;;;;;;;;;5063740;28;20471;-61
2022/11/27 01:02:32;;;;;;;31.77;11.03;;;;;;;;;;5071458;28;20475;-61
2022/11/27 01:04:58;;;;;;;26.57;10.00;;;;;;;;;;5070247;28;20040;-61
2022/11/27 01:07:24;;;;;;;28.53;10.23;;;;;;;;;;5070783;28;20029;-61
2022/11/27 01:09:50;;;;;;;29.20;9.97;;;;;;;;;;5068835;28;20041;-61
2022/11/27 01:12:15;;;;;;;27.37;9.87;;;;;;;;;;5075903;28;20033;-62
2022/11/27 01:14:40;;;;;;;26.33;11.27;;;;;;;;;;5070233;28;20086;-61
2022/11/27 01:17:05;;;;;;;32.80;10.97;;;;;;;;;;5068308;28;20024;-61
2022/11/27 01:19:30;;;;;;;24.93;10.73;;;;;;;;;;5069537;28;20050;-61
2022/11/27 01:21:56;;;;;;;30.00;10.30;;;;;;;;;;5072692;28;20542;-61
2022/11/27 01:24:21;;;;;;;28.03;9.37;;;;;;;;;;5073797;28;20978;-61
2022/11/27 01:26:46;;;;;;;21.23;9.70;;;;;;;;;;5077240;28;20033;-61
2022/11/27 01:29:11;;;;;;;25.70;9.47;;;;;;;;;;5078312;28;20032;-61
2022/11/27 01:31:37;;;;;;;25.50;10.10;;;;;;;;;;5072221;28;20036;-61
2022/11/27 01:34:04;;;;;;;20.50;8.73;;;;;;;;;;5067965;28;20480;-61
2022/11/27 01:36:30;;;;;;;23.83;7.87;;;;;;;;;;5072254;28;20086;-61
2022/11/27 01:38:55;;;;;;;24.73;8.90;;;;;;;;;;5077859;28;20024;-61
2022/11/27 01:41:28;;;;;;;27.43;10.10;;;;;;;;;;5073181;28;20017;-62
2022/11/27 01:43:57;;;;;;;28.00;10.70;;;;;;;;;;5072273;28;20099;-60
2022/11/27 01:46:32;;;;;;;25.90;8.93;;;;;;;;;;5061838;28;20058;-61
2022/11/27 01:49:09;;;;;;;23.37;9.33;;;;;;;;;;5067116;28;20410;-60
2022/11/27 01:51:40;;;;;;;22.97;9.60;;;;;;;;;;5065299;28;20091;-61
2022/11/27 01:54:07;;;;;;;19.35;8.98;;;;;;;;;;5066295;28;20609;-61
2022/11/27 01:56:32;;;;;;;17.63;7.57;;;;;;;;;;5067975;28;20027;-62
2022/11/27 01:58:58;;;;;;;19.47;7.83;;;;;;;;;;5075052;28;20497;-61
2022/11/27 02:01:24;;;;;;;21.60;9.23;;;;;;;;;;5070796;28;20024;-61
2022/11/27 02:03:50;;;;;;;25.33;9.53;;;;;;;;;;5075185;28;20101;-60
2022/11/27 02:06:15;;;;;;;23.27;8.80;;;;;;;;;;5073216;28;20027;-60
2022/11/27 02:08:41;;;;;;;21.90;8.23;;;;;;;;;;5073112;28;20074;-61
2022/11/27 02:11:22;;;;;;;25.57;9.40;;;;;;;;;;5074364;28;20499;-61
2022/11/27 02:13:51;;;;;;;22.73;9.63;;;;;;;;;;5071316;28;20368;-61
2022/11/27 02:16:23;;;;;;;15.13;7.10;;;;;;;;;;5065703;28;20036;-61
2022/11/27 02:19:00;;;;;;;21.70;9.60;;;;;;;;;;5068872;28;20024;-60
2022/11/27 02:21:32;;;;;;;26.67;10.70;;;;;;;;;;5070856;28;20031;-61
2022/11/27 02:23:57;;;;;;;24.60;11.27;;;;;;;;;;5069075;28;20017;-62
2022/11/27 02:26:28;;;;;;;28.17;12.30;;;;;;;;;;5073336;28;20085;-61
2022/11/27 02:28:59;;;;;;;36.30;14.02;;;;;;;;;;5067659;28;20056;-61
2022/11/27 02:31:51;;;;;;;40.40;14.98;;;;;;;;;;5071588;28;20104;-61
2022/11/27 02:34:35;;;;;;;29.33;14.70;;;;;;;;;;5064687;28;20462;-61
2022/11/27 02:37:05;;;;;;;43.40;15.93;;;;;;;;;;5069223;28;20352;-61
2022/11/27 02:39:37;;;;;;;42.33;15.83;;;;;;;;;;5067208;28;20024;-62
2022/11/27 02:42:02;;;;;;;;;;;;;;;;;;5068982;28;20024;-61
2022/11/27 02:44:31;;;;;;;43.53;16.33;;;;;;;;;;5067435;28;19962;-61
2022/11/27 02:46:56;;;;;;;48.00;18.50;;;;;;;;;;5063445;28;20616;-62
2022/11/27 02:49:22;;;;;;;50.23;18.97;;;;;;;;;;5069705;28;20021;-61
2022/11/27 02:51:50;;;;;;;56.37;19.40;;;;;;;;;;5063394;28;20095;-61
2022/11/27 02:54:19;;;;;;;59.50;19.07;;;;;;;;;;5068619;28;20090;-60
2022/11/27 02:56:47;;;;;;;53.03;18.67;;;;;;;;;;5064547;28;20512;-61
2022/11/27 02:59:13;;;;;;;54.17;20.27;;;;;;;;;;5071989;28;20017;-61
2022/11/27 03:01:41;;;;;;;47.23;18.33;;;;;;;;;;5065346;28;20147;-61
2022/11/27 03:04:08;;;;;;;47.93;17.90;;;;;;;;;;5065032;28;20039;-61
2022/11/27 03:06:38;;;;;;;49.27;17.97;;;;;;;;;;5064887;28;20024;-61
2022/11/27 03:09:12;;;;;;;41.63;16.27;;;;;;;;;;5070741;28;20353;-61
2022/11/27 03:11:37;;;;;;;44.83;17.67;;;;;;;;;;5067369;28;20017;-60
2022/11/27 03:14:05;;;;;;;45.83;17.30;;;;;;;;;;5068288;28;20027;-61
2022/11/27 03:16:33;;;;;;;45.07;18.50;;;;;;;;;;5066136;28;20032;-64
2022/11/27 03:19:16;;;;;;;49.77;20.40;;;;;;;;;;5071905;28;20097;-61
2022/11/27 03:21:51;;;;;;;41.37;14.43;;;;;;;;;;5061813;28;20024;-61
2022/11/27 03:24:16;;;;;;;35.27;14.43;;;;;;;;;;5066677;28;20021;-61
2022/11/27 03:26:42;;;;;;;21.17;9.10;;;;;;;;;;5070222;28;20345;-60
2022/11/27 03:29:16;;;;;;;30.13;13.07;;;;;;;;;;5068541;28;21355;-61
2022/11/27 03:31:42;;;;;;;34.73;14.27;;;;;;;;;;5067069;28;20082;-61
2022/11/27 03:34:07;;;;;;;31.37;14.80;;;;;;;;;;5071337;28;20024;-60
2022/11/27 03:36:32;;;;;;;33.43;14.13;;;;;;;;;;5070109;28;20027;-61
2022/11/27 03:38:58;;;;;;;35.93;15.53;;;;;;;;;;5067210;28;20064;-61
2022/11/27 03:41:37;;;;;;;31.40;12.70;;;;;;;;;;5067450;28;20029;-61
2022/11/27 03:44:11;;;;;;;26.63;13.50;;;;;;;;;;5070203;28;20088;-61
2022/11/27 03:46:53;;;;;;;35.17;14.93;;;;;;;;;;5067567;28;20086;-61
2022/11/27 03:49:19;;;;;;;35.37;13.67;;;;;;;;;;5064056;28;20400;-61
2022/11/27 03:51:54;;;;;;;36.13;12.70;;;;;;;;;;5070005;28;20025;-61
2022/11/27 03:54:19;;;;;;;24.20;8.73;;;;;;;;;;5069122;28;20461;-60
2022/11/27 03:56:52;;;;;;;28.90;11.87;;;;;;;;;;5065316;28;20055;-60
2022/11/27 03:59:20;;;;;;;30.83;11.10;;;;;;;;;;5069486;28;20015;-60
2022/11/27 04:01:45;;;;;;;34.60;12.63;;;;;;;;;;5067145;28;20017;-60
2022/11/27 04:04:11;;;;;;;31.40;13.27;;;;;;;;;;5068603;28;20023;-60
2022/11/27 04:06:36;;;;;;;25.50;9.23;;;;;;;;;;5071486;28;20031;-60
2022/11/27 04:09:01;;;;;;;25.37;10.63;;;;;;;;;;5070598;28;20029;-61
2022/11/27 04:11:26;;;;;;;35.37;13.93;;;;;;;;;;5066796;28;20510;-60
2022/11/27 04:13:51;;;;;;;31.17;11.03;;;;;;;;;;5067060;28;20040;-61
2022/11/27 04:16:17;;;;;;;35.90;15.17;;;;;;;;;;5064518;28;20058;-61
2022/11/27 04:18:43;;;;;;;31.70;12.63;;;;;;;;;;5067000;28;20078;-60
2022/11/27 04:21:08;;;;;;;30.40;12.70;;;;;;;;;;5068889;28;20027;-60
2022/11/27 04:23:34;;;;;;;27.43;11.83;;;;;;;;;;5068686;28;20468;-60
2022/11/27 04:25:59;;;;;;;34.10;14.03;;;;;;;;;;5066502;28;20139;-60
2022/11/27 04:28:24;;;;;;;27.10;10.83;;;;;;;;;;5076210;28;20016;-61
2022/11/27 04:30:50;;;;;;;30.53;11.23;;;;;;;;;;5063513;28;20042;-60
2022/11/27 04:33:15;;;;;;;30.03;13.53;;;;;;;;;;5067119;28;20115;-60
2022/11/27 04:35:41;;;;;;;31.53;12.60;;;;;;;;;;5067594;28;20495;-60
2022/11/27 04:38:06;;;;;;;33.17;14.50;;;;;;;;;;5071103;28;20476;-61
2022/11/27 04:40:31;;;;;;;29.87;12.77;;;;;;;;;;5071529;28;20630;-61
2022/11/27 04:42:56;;;;;;;23.77;10.80;;;;;;;;;;5074842;28;20017;-60
2022/11/27 04:45:22;;;;;;;31.90;13.73;;;;;;;;;;5069735;28;20025;-60
2022/11/27 04:47:47;;;;;;;29.43;12.63;;;;;;;;;;5070846;28;20519;-60
2022/11/27 04:50:12;;;;;;;20.73;9.50;;;;;;;;;;5066120;28;20086;-60
2022/11/27 04:52:37;;;;;;;30.77;13.07;;;;;;;;;;5069350;28;20052;-60
2022/11/27 04:55:03;;;;;;;25.80;11.97;;;;;;;;;;5071437;28;20035;-60
2022/11/27 04:57:28;;;;;;;31.20;13.03;;;;;;;;;;5069199;28;20020;-60
2022/11/27 04:59:53;;;;;;;17.47;7.83;;;;;;;;;;5073743;28;20032;-60
2022/11/27 05:02:18;;;;;;;29.87;12.23;;;;;;;;;;5068902;28;20016;-60
2022/11/27 05:04:44;;;;;;;26.97;12.20;;;;;;;;;;5069008;28;20032;-60
2022/11/27 05:07:10;;;;;;;20.83;8.83;;;;;;;;;;5065009;28;20057;-60
2022/11/27 05:09:35;;;;;;;13.33;5.40;;;;;;;;;;5072683;28;20033;-60
2022/11/27 05:12:00;;;;;;;22.97;10.57;;;;;;;;;;5071537;28;20839;-60
2022/11/27 05:14:28;;;;;;;14.03;6.03;;;;;;;;;;5067886;28;20495;-62
2022/11/27 05:16:54;;;;;;;25.83;11.20;;;;;;;;;;5072429;28;20472;-60
2022/11/27 05:19:20;;;;;;;19.43;7.83;;;;;;;;;;5072836;28;20468;-60
2022/11/27 05:21:46;;;;;;;16.67;6.97;;;;;;;;;;5068219;28;20144;-60
2022/11/27 05:24:11;;;;;;;30.23;12.73;;;;;;;;;;5068751;28;20552;-60
2022/11/27 05:26:37;;;;;;;16.00;6.90;;;;;;;;;;5080773;28;20047;-60
2022/11/27 05:29:03;;;;;;;19.83;8.50;;;;;;;;;;5057755;28;20028;-60
2022/11/27 05:31:28;;;;;;;29.67;12.83;;;;;;;;;;5070380;28;20029;-60
2022/11/27 05:33:53;;;;;;;24.60;11.70;;;;;;;;;;5073703;28;20036;-60
2022/11/27 05:36:18;;;;;;;23.17;10.07;;;;;;;;;;5076443;28;20024;-60
2022/11/27 05:38:44;;;;;;;21.17;7.70;;;;;;;;;;5071358;28;20060;-61
2022/11/27 05:41:09;;;;;;;22.17;8.03;;;;;;;;;;5072270;28;20024;-60
2022/11/27 05:43:34;;;;;;;22.80;8.07;;;;;;;;;;5072340;28;20017;-60
2022/11/27 05:46:03;;;;;;;21.70;9.17;;;;;;;;;;5066349;28;20025;-60
2022/11/27 05:48:28;;;;;;;31.23;11.83;;;;;;;;;;5062700;28;20055;-61
2022/11/27 05:50:53;;;;;;;20.20;8.10;;;;;;;;;;5058955;28;20045;-60
2022/11/27 05:53:19;;;;;;;22.27;8.67;;;;;;;;;;5076584;28;20027;-60
2022/11/27 05:55:44;;;;;;;25.03;10.30;;;;;;;;;;5080351;28;20012;-61
2022/11/27 05:58:10;;;;;;;26.17;10.10;;;;;;;;;;5077835;28;20036;-61
2022/11/27 06:00:35;;;;;;;18.63;8.50;;;;;;;;;;5055652;28;20128;-60
2022/11/27 06:03:00;;;;;;;28.53;10.90;;;;;;;;;;5065121;28;20021;-60
2022/11/27 06:05:25;;;;;;;22.30;10.37;;;;;;;;;;5062290;28;20044;-60
2022/11/27 06:07:51;;;;;;;24.17;10.33;;;;;;;;;;5053130;28;20032;-60
2022/11/27 06:10:16;;;;;;;31.47;11.20;;;;;;;;;;5075390;28;20021;-60
2022/11/27 06:12:41;;;;;;;26.60;8.43;;;;;;;;;;5085571;28;20085;-60
2022/11/27 06:15:06;;;;;;;31.37;12.23;;;;;;;;;;5082568;28;20075;-60
2022/11/27 06:17:32;;;;;;;22.57;9.40;;;;;;;;;;5073899;28;20032;-61
2022/11/27 06:19:57;;;;;;;21.27;9.10;;;;;;;;;;5062308;28;20473;-61
2022/11/27 06:22:22;;;;;;;14.67;6.83;;;;;;;;;;5059691;28;20024;-60
2022/11/27 06:24:47;;;;;;;26.20;9.03;;;;;;;;;;5059379;28;20112;-60
2022/11/27 06:27:13;;;;;;;29.37;12.23;;;;;;;;;;5073788;28;20379;-60
2022/11/27 06:29:38;;;;;;;25.30;10.03;;;;;;;;;;5087333;28;20479;-60
2022/11/27 06:32:03;;;;;;;27.53;9.90;;;;;;;;;;5080145;28;20075;-60
2022/11/27 06:34:29;;;;;;;31.93;12.83;;;;;;;;;;5077748;28;20036;-60
2022/11/27 06:36:54;;;;;;;25.90;10.43;;;;;;;;;;5083323;28;20023;-61
2022/11/27 06:39:19;;;;;;;26.33;10.50;;;;;;;;;;5078742;28;20430;-61
2022/11/27 06:41:45;;;;;;;32.33;12.27;;;;;;;;;;5071587;28;20474;-60
2022/11/27 06:44:10;;;;;;;30.70;12.03;;;;;;;;;;5076687;28;20030;-60
2022/11/27 06:46:35;;;;;;;14.83;6.73;;;;;;;;;;5075718;28;20100;-60
2022/11/27 06:49:01;;;;;;;28.00;11.47;;;;;;;;;;5083056;28;20040;-61
2022/11/27 06:51:27;;;;;;;28.17;10.50;;;;;;;;;;5074382;28;20020;-61
2022/11/27 06:53:53;;;;;;;27.53;12.53;;;;;;;;;;5057967;28;20016;-60
2022/11/27 06:56:19;;;;;;;34.50;14.37;;;;;;;;;;5072809;28;20151;-60
2022/11/27 06:58:45;;;;;;;30.60;12.17;;;;;;;;;;5080690;28;20020;-60
2022/11/27 07:01:11;;;;;;;31.73;12.67;;;;;;;;;;5072075;28;20372;-60
2022/11/27 07:03:37;;;;;;;28.70;10.47;;;;;;;;;;5074693;28;20090;-61
2022/11/27 07:06:03;;;;;;;32.77;12.80;;;;;;;;;;5060591;28;20492;-60
2022/11/27 07:08:28;;;;;;;26.17;12.17;;;;;;;;;;5072354;28;20055;-60
2022/11/27 07:10:59;;;;;;;29.87;12.77;;;;;;;;;;5070873;28;20024;-60
2022/11/27 07:13:25;;;;;;;32.58;13.63;;;;;;;;;;5059082;28;20373;-60
2022/11/27 07:15:50;;;;;;;33.90;13.10;;;;;;;;;;5077809;28;20028;-61
2022/11/27 07:18:15;;;;;;;29.17;11.50;;;;;;;;;;5066202;28;20098;-60
2022/11/27 07:20:40;;;;;;;33.20;12.53;;;;;;;;;;5072300;28;20016;-60
2022/11/27 07:23:05;;;;;;;27.47;12.20;;;;;;;;;;5075259;28;20023;-60
2022/11/27 07:25:31;;;;;;;36.90;13.67;;;;;;;;;;5069763;28;20467;-61
2022/11/27 07:27:56;;;;;;;26.10;11.87;;;;;;;;;;5070752;28;20096;-61
2022/11/27 07:30:21;;;;;;;30.37;13.67;;;;;;;;;;5057886;28;20020;-60
2022/11/27 07:32:46;;;;;;;28.47;12.17;;;;;;;;;;5079613;28;20174;-61
2022/11/27 07:35:12;;;;;;;33.20;13.60;;;;;;;;;;5075199;28;20020;-61
2022/11/27 07:37:37;;;;;;;33.90;13.47;;;;;;;;;;5073188;28;20392;-60
2022/11/27 07:40:02;;;;;;;31.33;13.63;;;;;;;;;;5072309;28;20044;-60
2022/11/27 07:42:28;;;;;;;28.63;11.27;;;;;;;;;;5071297;28;20060;-62
2022/11/27 07:44:53;;;;;;;28.80;12.77;;;;;;;;;;5074444;28;20433;-60
2022/11/27 07:47:19;;;;;;;27.40;12.63;;;;;;;;;;5062569;28;20368;-61
2022/11/27 07:49:44;;;;;;;27.27;11.93;;;;;;;;;;5084577;28;20032;-60
2022/11/27 07:52:09;;;;;;;25.70;10.10;;;;;;;;;;5069781;28;20392;-60
2022/11/27 07:54:35;;;;;;;31.17;12.00;;;;;;;;;;5070370;28;20502;-60
2022/11/27 07:57:00;;;;;;;28.17;11.30;;;;;;;;;;5070757;28;20107;-60
2022/11/27 07:59:25;;;;;;;23.70;9.27;;;;;;;;;;5062538;28;20081;-60
2022/11/27 08:01:51;;;;;;;27.93;10.33;;;;;;;;;;5077767;28;20027;-60
2022/11/27 08:04:16;;;;;;;27.93;12.70;;;;;;;;;;5074305;28;20032;-60
2022/11/27 08:06:41;;;;;;;24.97;10.67;;;;;;;;;;5075229;28;20091;-60
2022/11/27 08:09:06;;;;;;;27.37;11.53;;;;;;;;;;5055963;28;20063;-60
2022/11/27 08:11:34;;;;;;;22.77;9.57;;;;;;;;;;5072200;28;20031;-61
2022/11/27 08:14:00;;;;;;;30.43;10.47;;;;;;;;;;5072308;28;20021;-60
2022/11/27 08:16:26;;;;;;;19.83;7.50;;;;;;;;;;5070959;28;20035;-60
2022/11/27 08:18:51;;;;;;;27.20;11.73;;;;;;;;;;5082852;28;20421;-61
2022/11/27 08:21:17;;;;;;;21.87;8.73;;;;;;;;;;5075568;28;20021;-61
2022/11/27 08:23:42;;;;;;;27.00;11.33;;;;;;;;;;5080385;28;20777;-61
2022/11/27 08:26:08;;;;;;;21.80;10.97;;;;;;;;;;5071839;28;20012;-61
2022/11/27 08:28:33;;;;;;;21.60;10.43;;;;;;;;;;5056667;28;20431;-61
2022/11/27 08:30:59;;;;;;;23.97;11.50;;;;;;;;;;5063302;28;20460;-60
2022/11/27 08:33:24;;;;;;;21.77;10.63;;;;;;;;;;5064532;28;20020;-60
2022/11/27 08:35:50;;;;;;;22.10;8.93;;;;;;;;;;5060769;28;20357;-61
2022/11/27 08:38:15;;;;;;;20.20;8.87;;;;;;;;;;5068274;28;20033;-61
2022/11/27 08:40:40;;;;;;;19.17;10.03;;;;;;;;;;5078666;28;20047;-61
2022/11/27 08:43:05;;;;;;;16.53;7.93;;;;;;;;;;5072517;28;20031;-60
2022/11/27 08:45:31;;;;;;;15.07;7.30;;;;;;;;;;5081200;28;20376;-60
2022/11/27 08:47:57;;;;;;;18.40;9.23;;;;;;;;;;5068045;28;20074;-61
2022/11/27 08:50:22;;;;;;;20.07;9.20;;;;;;;;;;5073141;28;20179;-60
2022/11/27 08:52:50;;;;;;;12.20;6.20;;;;;;;;;;5075890;28;20016;-60
2022/11/27 08:55:16;;;;;;;22.33;9.87;;;;;;;;;;5073919;28;20375;-60
2022/11/27 08:57:41;;;;;;;18.03;7.53;;;;;;;;;;5087680;28;20028;-61
2022/11/27 09:00:06;;;;;;;17.27;8.30;;;;;;;;;;5072179;28;20017;-60
2022/11/27 09:02:32;;;;;;;18.50;7.67;;;;;;;;;;5064178;28;20064;-60
2022/11/27 09:04:57;;;;;;;11.13;5.13;;;;;;;;;;5068799;28;20071;-61
2022/11/27 09:07:23;;;;;;;19.87;8.93;;;;;;;;;;5074696;28;20692;-60
2022/11/27 09:09:48;;;;;;;17.07;7.47;;;;;;;;;;5073215;28;20020;-60
2022/11/27 09:12:13;;;;;;;20.37;9.70;;;;;;;;;;5070791;28;20024;-60
2022/11/27 09:14:38;;;;;;;17.53;7.63;;;;;;;;;;5061149;28;20108;-60
2022/11/27 09:17:04;;;;;;;22.47;11.00;;;;;;;;;;5063099;28;20094;-60
2022/11/27 09:19:29;;;;;;;18.73;8.20;;;;;;;;;;5060461;28;20028;-61
2022/11/27 09:21:55;;;;;;;19.03;9.97;;;;;;;;;;5071023;28;20024;-60
2022/11/27 09:24:20;;;;;;;20.30;9.97;;;;;;;;;;5074223;28;20027;-60
2022/11/27 09:26:45;;;;;;;18.60;8.20;;;;;;;;;;5074163;28;20028;-60
2022/11/27 09:29:10;;;;;;;20.37;9.63;;;;;;;;;;5073597;28;20033;-60
2022/11/27 09:31:36;;;;;;;17.07;9.50;;;;;;;;;;5065321;28;20449;-61
2022/11/27 09:34:01;;;;;;;17.50;8.60;;;;;;;;;;5054478;28;20400;-61
2022/11/27 09:36:26;;;;;;;21.80;8.80;;;;;;;;;;5064612;28;20017;-60
2022/11/27 09:38:52;;;;;;;17.70;9.40;;;;;;;;;;5067172;28;20852;-60
2022/11/27 09:41:17;;;;;;;18.83;9.43;;;;;;;;;;5069887;28;20025;-60
2022/11/27 09:43:48;;;;;;;16.80;8.60;;;;;;;;;;5092308;28;20058;-60
2022/11/27 09:46:25;;;;;;;16.40;9.03;;;;;;;;;;5072463;28;20364;-61
2022/11/27 09:48:51;;;;;;;19.07;9.03;;;;;;;;;;5066941;28;20043;-61
2022/11/27 09:51:36;;;;;;;16.67;8.43;;;;;;;;;;5053526;28;20017;-61
2022/11/27 09:54:02;;;;;;;17.47;7.47;;;;;;;;;;5052715;28;20060;-60
2022/11/27 09:56:28;;;;;;;17.03;8.63;;;;;;;;;;5065017;28;20067;-60
2022/11/27 09:58:55;;;;;;;15.60;7.73;;;;;;;;;;5069433;28;20024;-60
2022/11/27 10:01:24;;;;;;;19.43;9.43;;;;;;;;;;5062101;28;20082;-60
2022/11/27 10:03:49;;;;;;;19.00;8.60;;;;;;;;;;5080562;28;20020;-61
2022/11/27 10:06:15;;;;;;;15.00;8.47;;;;;;;;;;5082758;28;20517;-61
2022/11/27 10:08:40;;;;;;;18.37;8.83;;;;;;;;;;5083065;28;20047;-61
2022/11/27 10:11:05;;;;;;;15.53;8.23;;;;;;;;;;5071341;28;20369;-61
2022/11/27 10:13:54;;;;;;;15.37;8.20;;;;;;;;;;5067511;28;20159;-60
2022/11/27 10:16:38;;;;;;;15.40;8.13;;;;;;;;;;5072826;28;20032;-61
2022/11/27 10:19:03;;;;;;;17.60;8.33;;;;;;;;;;5078586;28;20027;-61
2022/11/27 10:21:31;;;;;;;18.53;8.33;;;;;;;;;;5059210;28;20021;-61
2022/11/27 10:23:59;;;;;;;15.27;8.03;;;;;;;;;;5053132;28;20013;-61
2022/11/27 10:26:35;;;;;;;17.40;8.40;;;;;;;;;;5066993;28;20025;-60
2022/11/27 10:29:00;;;;;;;16.37;7.90;;;;;;;;;;5059870;28;20016;-63
2022/11/27 10:31:37;;;;;;;20.33;8.47;;;;;;;;;;5060935;28;20353;-61
2022/11/27 10:34:17;;;;;;;19.37;8.60;;;;;;;;;;5070419;28;20021;-61
2022/11/27 10:36:44;;;;;;;15.27;7.33;;;;;;;;;;5088003;28;20035;-61
2022/11/27 10:39:25;;;;;;;17.93;7.63;;;;;;;;;;5077802;28;20395;-60
2022/11/27 10:42:12;;;;;;;15.57;7.57;;;;;;;;;;5062897;28;20060;-61
2022/11/27 10:44:43;;;;;;;16.93;7.13;;;;;;;;;;5073738;28;20415;-61
2022/11/27 10:47:09;;;;;;;16.17;7.40;;;;;;;;;;5070114;28;20063;-60
2022/11/27 10:49:37;;;;;;;13.67;7.13;;;;;;;;;;5055460;28;20021;-61
2022/11/27 10:52:03;;;;;;;13.13;7.47;;;;;;;;;;5071462;28;20416;-61
2022/11/27 10:54:31;;;;;;;13.63;7.37;;;;;;;;;;5069886;28;20155;-61
2022/11/27 10:57:15;;;;;;;15.80;7.70;;;;;;;;;;5071950;28;20468;-60
2022/11/27 10:59:59;;;;;;;14.23;7.03;;;;;;;;;;5071751;28;20096;-61
2022/11/27 11:02:27;;;;;;;15.70;7.50;;;;;;;;;;5082864;28;20048;-60
2022/11/27 11:04:53;;;;;;;15.47;7.50;;;;;;;;;;5078456;28;20376;-61
2022/11/27 11:07:26;;;;;;;13.03;7.00;;;;;;;;;;5071967;28;20412;-61
2022/11/27 11:09:52;;;;;;;14.83;7.47;;;;;;;;;;5068066;28;20090;-60
2022/11/27 11:12:20;;;;;;;12.87;6.50;;;;;;;;;;5074878;28;20032;-60
2022/11/27 11:14:52;;;;;;;17.90;7.67;;;;;;;;;;5071114;28;20472;-61
2022/11/27 11:17:23;;;;;;;16.97;6.77;;;;;;;;;;5072391;28;20102;-60
2022/11/27 11:19:48;;;;;;;14.07;7.23;;;;;;;;;;5062524;28;20036;-60
2022/11/27 11:22:15;;;;;;;17.07;7.93;;;;;;;;;;5058444;28;20384;-61
2022/11/27 11:24:44;;;;;;;16.33;7.33;;;;;;;;;;5056349;28;21255;-61
2022/11/27 11:27:12;;;;;;;13.13;7.67;;;;;;;;;;5056518;28;20595;-61
2022/11/27 11:29:49;;;;;;;15.60;7.67;;;;;;;;;;5060087;28;20030;-62
2022/11/27 11:32:20;;;;;;;14.33;7.20;;;;;;;;;;5064644;28;20028;-60
2022/11/27 11:35:07;;;;;;;16.57;7.50;;;;;;;;;;5066136;28;20111;-61
2022/11/27 11:37:34;;;;;;;11.37;5.70;;;;;;;;;;5069274;28;20024;-60
2022/11/27 11:40:07;;;;;;;13.83;7.50;;;;;;;;;;5067127;28;20484;-62
2022/11/27 11:42:33;;;;;;;12.60;6.70;;;;;;;;;;5064718;28;20040;-61
2022/11/27 11:45:10;;;;;;;13.87;7.00;;;;;;;;;;5069002;28;20040;-61
2022/11/27 11:47:43;;;;;;;11.43;5.00;;;;;;;;;;5063315;28;20032;-60
2022/11/27 11:50:12;;;;;;;13.83;6.97;;;;;;;;;;5078208;28;20520;-60
2022/11/27 11:53:12;;;;;;;14.70;7.10;;;;;;;;;;5070959;28;20028;-60
2022/11/27 11:56:16;;;;;;;13.70;5.87;;;;;;;;;;5002780;28;20482;-61
2022/11/27 11:59:00;;;;;;;18.33;6.93;;;;;;;;;;4935403;29;20189;-60
2022/11/27 12:01:44;;;;;;;15.90;7.77;;;;;;;;;;4931890;29;20035;-60
2022/11/27 12:04:18;;;;;;;14.67;6.83;;;;;;;;;;4980233;28;20053;-60
2022/11/27 12:07:02;;;;;;;13.67;6.00;;;;;;;;;;5011450;28;20029;-61
2022/11/27 12:09:33;;;;;;;14.93;7.40;;;;;;;;;;5010757;28;20034;-61
2022/11/27 12:11:58;;;;;;;13.43;6.47;;;;;;;;;;4998734;28;20501;-60
2022/11/27 12:14:46;;;;;;;17.50;7.03;;;;;;;;;;5014395;28;20126;-62
2022/11/27 12:17:30;;;;;;;13.97;7.23;;;;;;;;;;4968473;28;20045;-61
2022/11/27 12:19:55;;;;;;;13.53;7.50;;;;;;;;;;5006878;28;20044;-61
2022/11/27 12:22:21;;;;;;;16.70;7.90;;;;;;;;;;5008531;28;20486;-60
2022/11/27 12:24:49;;;;;;;14.93;6.60;;;;;;;;;;5018248;28;20031;-60
2022/11/27 12:27:14;;;;;;;13.27;6.47;;;;;;;;;;5012753;28;20025;-60
2022/11/27 12:29:42;;;;;;;14.07;7.27;;;;;;;;;;5035306;28;20111;-61
2022/11/27 12:32:07;;;;;;;15.03;6.70;;;;;;;;;;5073376;28;20024;-60
2022/11/27 12:34:33;;;;;;;13.83;7.80;;;;;;;;;;5074569;28;20044;-60
2022/11/27 12:37:16;;;;;;;16.90;6.97;;;;;;;;;;5081290;28;20511;-60
2022/11/27 12:39:54;;;;;;;13.00;6.67;;;;;;;;;;5094805;28;20028;-60
2022/11/27 12:42:39;;;;;;;12.47;6.53;;;;;;;;;;5073954;28;20027;-60
2022/11/27 12:45:16;;;;;;;14.10;7.40;;;;;;;;;;5029806;28;20032;-60
2022/11/27 12:47:42;;;;;;;12.00;5.50;;;;;;;;;;5074497;28;20468;-60
2022/11/27 12:50:14;;;;;;;16.47;7.83;;;;;;;;;;5073501;28;20160;-61
2022/11/27 12:52:41;;;;;;;12.60;7.00;;;;;;;;;;5086948;28;20482;-60
2022/11/27 12:55:21;;;;;;;12.60;6.87;;;;;;;;;;5087247;28;20399;-60
2022/11/27 12:57:52;;;;;;;12.73;6.30;;;;;;;;;;5072424;28;20071;-60
2022/11/27 13:00:19;;;;;;;13.02;6.72;;;;;;;;;;5076874;28;20035;-61
2022/11/27 13:03:03;;;;;;;18.77;6.33;;;;;;;;;;5074053;28;20361;-61
2022/11/27 13:05:36;;;;;;;12.30;6.23;;;;;;;;;;5063639;28;20025;-60
2022/11/27 13:08:05;;;;;;;13.03;6.67;;;;;;;;;;5092439;28;20021;-60
2022/11/27 13:11:03;;;;;;;13.83;7.13;;;;;;;;;;5085154;28;20055;-60
2022/11/27 13:13:39;;;;;;;13.57;6.93;;;;;;;;;;5047360;28;20462;-60
2022/11/27 13:16:04;;;;;;;14.97;6.47;;;;;;;;;;5074993;28;20064;-61
2022/11/27 13:18:30;;;;;;;17.10;6.73;;;;;;;;;;5074842;28;20797;-60
2022/11/27 13:20:57;;;;;;;12.10;6.43;;;;;;;;;;5069497;28;20112;-61
2022/11/27 13:23:23;;;;;;;11.23;5.63;;;;;;;;;;5071927;28;20052;-60
2022/11/27 13:25:50;;;;;;;14.30;7.03;;;;;;;;;;5083683;28;20531;-60
2022/11/27 13:28:39;;;;;;;13.67;6.30;;;;;;;;;;5075098;28;20082;-60
2022/11/27 13:31:05;;;;;;;13.17;5.90;;;;;;;;;;5062007;28;20043;-60
2022/11/27 13:33:41;;;;;;;14.97;7.13;;;;;;;;;;5075968;28;20497;-61
2022/11/27 13:36:16;;;;;;;12.80;6.10;;;;;;;;;;5064370;28;20476;-61
2022/11/27 13:38:41;;;;;;;7.83;3.87;;;;;;;;;;5073748;28;20036;-61
2022/11/27 13:41:07;;;;;;;9.83;4.70;;;;;;;;;;5068284;28;20039;-60
2022/11/27 13:43:35;;;;;;;12.57;5.90;;;;;;;;;;5061413;28;20086;-62
2022/11/27 13:46:05;;;;;;;10.50;5.73;;;;;;;;;;5067769;28;20048;-61
2022/11/27 13:48:31;;;;;;;10.47;4.93;;;;;;;;;;5069900;28;20154;-60
2022/11/27 13:50:57;;;;;;;14.47;7.57;;;;;;;;;;5068873;28;20456;-61
2022/11/27 13:53:51;;;;;;;14.30;7.27;;;;;;;;;;5072413;28;20031;-61
2022/11/27 13:56:26;;;;;;;14.67;6.80;;;;;;;;;;5048067;28;20522;-61
2022/11/27 13:58:52;;;;;;;14.37;7.30;;;;;;;;;;5069321;28;20035;-61
2022/11/27 14:01:19;;;;;;;12.77;6.50;;;;;;;;;;5065669;28;20396;-62
2022/11/27 14:03:44;;;;;;;10.83;5.53;;;;;;;;;;5081103;28;20020;-60
2022/11/27 14:06:15;;;;;;;14.73;6.30;;;;;;;;;;5069051;28;20040;-61
2022/11/27 14:08:47;;;;;;;12.38;5.13;;;;;;;;;;5072871;28;20373;-60
2022/11/27 14:11:12;;;;;;;12.47;6.10;;;;;;;;;;5056049;28;20039;-61
2022/11/27 14:13:42;;;;;;;15.03;6.30;;;;;;;;;;5081688;28;20027;-61
2022/11/27 14:16:28;;;;;;;12.77;6.90;;;;;;;;;;5064993;28;20403;-61
2022/11/27 14:18:55;;;;;;;13.13;6.10;;;;;;;;;;5054007;28;20682;-62
2022/11/27 14:21:41;;;;;;;11.20;6.20;;;;;;;;;;5054549;28;20025;-61
2022/11/27 14:24:30;;;;;;;12.90;6.37;;;;;;;;;;5057165;28;20087;-61
2022/11/27 14:26:55;;;;;;;13.87;6.07;;;;;;;;;;5044923;28;20057;-61
2022/11/27 14:29:21;;;;;;;11.93;6.27;;;;;;;;;;5054087;28;22014;-61
2022/11/27 14:32:00;;;;;;;12.53;6.53;;;;;;;8.20;100.00;149523.22;5036117;28;20437;-62